Saint-Pierre, Martinique
Current Conditions -  °F | °C
As of 9:30 AM on Friday 28 Nov 2014 (Local Time) from TFFF Reporting Station
Broken Clouds Broken Clouds  
Wind Chill: 81°   Ceiling: 5000
Heat Index: 86°   Visibility: 6mi
Dew Point: 75°   Wind: 13mph
Humidity: 84%   Direction: 120°ESE
Pressure: 29.97"   Gusts: NA
Location:  14.74°N, 61.18°W
Report Text: TFFF 281330Z AUTO 12011KT 9999 FEW016/// SCT025/// BKN050///27/24 Q1015
Loading
Personal Weather Stations






























Interactive Weather Map New forecast layout! Learn more

10-Day Weather Forecast

Advertisements
Track Severe Weather on mobile